In Rescue
 
Open Full Screen Window  High Contrast Mode
October 19, 2020 6:44 PM CDT
Weather Information
Wind Direction
  ---
Wind Speed
  00 kt (0 mph)
Wind Gust
  00 kt (0 mph)
Altimeter
30.23 in
Visibility
10 SM
Temperature
00° C
32° F
Dewpoint
-07° C
19° F
Humidity
60%
1hr Rain Fall
00.00 in.
24hr Rain Fall
00.00 in.
Sky Condition
Scattered @ 8,000 ft
VFR

METAR KFKA 192344Z AUTO 00000KT 10SM SCT080 00/M07 A3023 RMK AO2 LTG DSNT SE T00011067

FAA Disclaimer: The data displayed is for advisory purposes only and is not to be used for flight planning or operations.